Time;durP1;ratioP1;P1;durP2;ratioP2;P2;SDS_P1;SDS_P2;PMS_P1;PMS_P2;Temp;Humidity;BMP_temperature;BMP_pressure;BME280_temperature;BME280_humidity;BME280_pressure;Samples;Min_cycle;Max_cycle;Signal;HPM_P1;HPM_P2
2021/10/17 00:00:40;;;;;;;12.75;4.60;;;;;;;;;;4847129;29;20140;-80
2021/10/17 00:03:07;;;;;;;13.82;5.10;;;;;;;;;;4858271;29;20049;-80
2021/10/17 00:05:34;;;;;;;13.60;5.10;;;;;;;;;;4841032;29;20033;-80
2021/10/17 00:08:01;;;;;;;11.93;5.30;;;;;;;;;;4847067;29;20040;-80
2021/10/17 00:10:30;;;;;;;12.02;4.80;;;;;;;;;;4858629;29;20056;-80
2021/10/17 00:12:57;;;;;;;12.75;5.00;;;;;;;;;;4860353;29;20909;-81
2021/10/17 00:15:25;;;;;;;10.65;4.82;;;;;;;;;;4844119;29;20784;-80
2021/10/17 00:17:52;;;;;;;11.50;4.65;;;;;;;;;;4845586;29;20933;-81
2021/10/17 00:20:20;;;;;;;11.27;4.40;;;;;;;;;;4842312;29;20060;-80
2021/10/17 00:22:47;;;;;;;10.93;4.18;;;;;;;;;;4848928;29;20045;-81
2021/10/17 00:25:15;;;;;;;10.73;4.97;;;;;;;;;;4857665;29;20067;-80
2021/10/17 00:27:41;;;;;;;9.55;4.30;;;;;;;;;;4862151;29;20140;-81
2021/10/17 00:30:08;;;;;;;10.98;4.53;;;;;;;;;;4848401;29;20144;-79
2021/10/17 00:32:36;;;;;;;10.80;4.38;;;;;;;;;;4851422;29;20040;-82
2021/10/17 00:35:04;;;;;;;11.45;4.78;;;;;;;;;;4849435;29;20032;-80
2021/10/17 00:37:35;;;;;;;12.95;5.43;;;;;;;;;;4844356;29;20041;-81
2021/10/17 00:40:03;;;;;;;11.32;4.38;;;;;;;;;;4854221;29;20078;-80
2021/10/17 00:42:29;;;;;;;13.60;4.60;;;;;;;;;;4850967;29;22662;-80
2021/10/17 00:45:00;;;;;;;11.15;4.13;;;;;;;;;;4852573;29;20041;-81
2021/10/17 00:47:27;;;;;;;12.13;4.75;;;;;;;;;;4838314;29;20287;-80
2021/10/17 00:49:54;;;;;;;12.25;5.60;;;;;;;;;;4862321;29;20043;-81
2021/10/17 00:52:21;;;;;;;12.60;5.82;;;;;;;;;;4868305;29;20037;-81
2021/10/17 00:54:48;;;;;;;11.52;4.78;;;;;;;;;;4852560;29;20049;-81
2021/10/17 00:57:15;;;;;;;12.65;5.45;;;;;;;;;;4851609;29;20124;-82
2021/10/17 00:59:42;;;;;;;11.27;5.03;;;;;;;;;;4853786;29;20045;-81
2021/10/17 01:02:08;;;;;;;;;;;;;;;;;;4868720;29;20036;-80
2021/10/17 01:04:37;;;;;;;11.13;4.75;;;;;;;;;;4849498;29;19976;-80
2021/10/17 01:07:05;;;;;;;12.43;5.30;;;;;;;;;;4850385;29;20037;-82
2021/10/17 01:09:33;;;;;;;11.63;5.68;;;;;;;;;;4850181;29;20041;-80
2021/10/17 01:12:00;;;;;;;13.23;5.88;;;;;;;;;;4868716;29;20067;-81
2021/10/17 01:14:27;;;;;;;15.35;6.93;;;;;;;;;;4862570;29;20034;-83
2021/10/17 01:16:53;;;;;;;10.95;4.80;;;;;;;;;;4866940;29;20480;-81
2021/10/17 01:19:20;;;;;;;13.93;5.38;;;;;;;;;;4858955;29;20599;-79
2021/10/17 01:21:47;;;;;;;15.65;9.52;;;;;;;;;;4866056;29;20044;-82
2021/10/17 01:24:14;;;;;;;20.35;11.07;;;;;;;;;;4861357;29;20066;-82
2021/10/17 01:26:41;;;;;;;14.93;8.40;;;;;;;;;;4868467;29;20496;-82
2021/10/17 01:29:10;;;;;;;16.45;8.70;;;;;;;;;;4869035;29;20036;-80
2021/10/17 01:31:39;;;;;;;15.13;8.07;;;;;;;;;;4867796;29;20784;-80
2021/10/17 01:34:07;;;;;;;14.90;7.53;;;;;;;;;;4867317;29;20139;-80
2021/10/17 01:36:38;;;;;;;14.75;6.20;;;;;;;;;;4870583;29;20047;-80
2021/10/17 01:39:06;;;;;;;14.55;5.75;;;;;;;;;;4868862;29;20864;-80
2021/10/17 01:41:33;;;;;;;13.82;5.80;;;;;;;;;;4862529;29;20036;-79
2021/10/17 01:44:11;;;;;;;11.85;5.10;;;;;;;;;;4860690;29;20116;-79
2021/10/17 01:46:40;;;;;;;10.98;5.30;;;;;;;;;;4864927;29;20493;-80
2021/10/17 01:49:07;;;;;;;13.95;5.07;;;;;;;;;;4867420;29;20127;-80
2021/10/17 01:51:34;;;;;;;12.85;4.38;;;;;;;;;;4859893;29;20051;-80
2021/10/17 01:54:04;;;;;;;11.80;4.25;;;;;;;;;;4850939;29;20040;-80
2021/10/17 01:56:34;;;;;;;12.93;4.22;;;;;;;;;;4867106;29;20039;-80
2021/10/17 01:59:02;;;;;;;9.98;4.45;;;;;;;;;;4867368;29;20127;-81
2021/10/17 02:01:30;;;;;;;10.88;4.90;;;;;;;;;;4858229;29;21169;-81
2021/10/17 02:03:59;;;;;;;12.63;5.18;;;;;;;;;;4867469;29;20047;-81
2021/10/17 02:06:26;;;;;;;11.82;5.30;;;;;;;;;;4855748;29;20041;-81
2021/10/17 02:08:53;;;;;;;10.63;4.30;;;;;;;;;;4876453;29;20052;-80
2021/10/17 02:11:20;;;;;;;11.65;5.38;;;;;;;;;;4864793;29;20386;-82
2021/10/17 02:13:47;;;;;;;12.32;5.10;;;;;;;;;;4868022;29;20020;-81
2021/10/17 02:16:15;;;;;;;12.60;4.63;;;;;;;;;;4866253;29;20834;-81
2021/10/17 02:18:42;;;;;;;13.40;4.63;;;;;;;;;;4873873;29;20046;-81
2021/10/17 02:21:08;;;;;;;11.98;4.72;;;;;;;;;;4865855;29;20052;-79
2021/10/17 02:23:35;;;;;;;;;;;;;;;;;;4853461;29;20486;-80
2021/10/17 02:26:02;;;;;;;10.10;4.47;;;;;;;;;;4867219;29;19923;-80
2021/10/17 02:28:28;;;;;;;10.98;4.38;;;;;;;;;;4853891;29;20748;-80
2021/10/17 02:30:54;;;;;;;11.70;4.80;;;;;;;;;;4865185;29;21969;-79
2021/10/17 02:33:21;;;;;;;12.88;4.50;;;;;;;;;;4859156;29;20045;-80
2021/10/17 02:35:48;;;;;;;9.80;4.30;;;;;;;;;;4863677;29;20043;-80
2021/10/17 02:38:15;;;;;;;12.80;4.72;;;;;;;;;;4864132;29;20020;-81
2021/10/17 02:40:42;;;;;;;10.63;4.35;;;;;;;;;;4853927;29;20048;-80
2021/10/17 02:43:08;;;;;;;11.65;4.18;;;;;;;;;;4866878;29;20060;-80
2021/10/17 02:45:36;;;;;;;10.15;3.95;;;;;;;;;;4872680;29;20037;-81
2021/10/17 02:48:02;;;;;;;11.60;4.00;;;;;;;;;;4864931;29;20596;-80
2021/10/17 02:50:29;;;;;;;11.35;3.63;;;;;;;;;;4857299;29;21084;-80
2021/10/17 02:52:55;;;;;;;11.38;4.22;;;;;;;;;;4856715;29;20036;-80
2021/10/17 02:55:21;;;;;;;11.88;4.43;;;;;;;;;;4868602;29;20136;-81
2021/10/17 02:57:48;;;;;;;14.43;5.30;;;;;;;;;;4872504;29;20041;-81
2021/10/17 03:00:14;;;;;;;12.68;6.15;;;;;;;;;;4850240;29;20081;-82
2021/10/17 03:02:40;;;;;;;;;;;;;;;;;;4869471;29;20041;-80
2021/10/17 03:05:06;;;;;;;14.40;5.82;;;;;;;;;;4868893;29;19923;-81
2021/10/17 03:07:33;;;;;;;;;;;;;;;;;;4876703;29;20047;-82
2021/10/17 03:10:00;;;;;;;14.63;6.22;;;;;;;;;;4860901;29;19920;-81
2021/10/17 03:12:27;;;;;;;17.15;6.13;;;;;;;;;;4861049;29;20028;-81
2021/10/17 03:14:54;;;;;;;14.48;5.97;;;;;;;;;;4866583;29;20084;-81
2021/10/17 03:17:21;;;;;;;10.93;5.50;;;;;;;;;;4851717;29;20039;-81
2021/10/17 03:19:49;;;;;;;11.27;4.57;;;;;;;;;;4859074;29;20048;-81
2021/10/17 03:22:17;;;;;;;11.50;5.60;;;;;;;;;;4846751;29;20037;-80
2021/10/17 03:24:44;;;;;;;12.30;5.53;;;;;;;;;;4848033;29;20807;-81
2021/10/17 03:27:11;;;;;;;11.98;4.97;;;;;;;;;;4848331;29;20640;-81
2021/10/17 03:29:38;;;;;;;12.75;5.28;;;;;;;;;;4849771;29;20033;-81
2021/10/17 03:32:05;;;;;;;12.20;4.93;;;;;;;;;;4847302;29;20107;-81
2021/10/17 03:34:31;;;;;;;11.75;4.60;;;;;;;;;;4842994;29;20941;-81
2021/10/17 03:36:58;;;;;;;12.48;5.20;;;;;;;;;;4855554;29;20037;-80
2021/10/17 03:39:26;;;;;;;10.50;4.78;;;;;;;;;;4844798;29;20037;-80
2021/10/17 03:41:53;;;;;;;10.77;4.38;;;;;;;;;;4845788;29;20052;-80
2021/10/17 03:44:20;;;;;;;11.55;4.63;;;;;;;;;;4844299;29;20116;-81
2021/10/17 03:46:47;;;;;;;8.88;3.72;;;;;;;;;;4846608;29;20033;-80
2021/10/17 03:49:14;;;;;;;12.73;3.97;;;;;;;;;;4854705;29;20041;-79
2021/10/17 03:51:41;;;;;;;12.60;4.35;;;;;;;;;;4847468;29;20037;-79
2021/10/17 03:54:08;;;;;;;11.05;3.97;;;;;;;;;;4859574;29;20478;-80
2021/10/17 03:56:34;;;;;;;12.07;4.32;;;;;;;;;;4842924;29;20022;-84
2021/10/17 03:59:00;;;;;;;13.40;4.53;;;;;;;;;;4848812;29;20738;-83
2021/10/17 04:01:26;;;;;;;12.32;4.20;;;;;;;;;;4857085;29;20080;-83
2021/10/17 04:03:52;;;;;;;14.05;5.15;;;;;;;;;;4841754;29;20045;-81
2021/10/17 04:06:18;;;;;;;12.63;4.47;;;;;;;;;;4856960;29;20057;-81
2021/10/17 04:08:45;;;;;;;11.73;4.63;;;;;;;;;;4845793;29;20046;-81
2021/10/17 04:11:11;;;;;;;11.70;4.28;;;;;;;;;;4858942;29;20044;-82
2021/10/17 04:13:37;;;;;;;;;;;;;;;;;;4845498;29;20032;-81
2021/10/17 04:16:03;;;;;;;12.48;4.00;;;;;;;;;;4847710;29;19979;-81
2021/10/17 04:18:29;;;;;;;10.20;4.05;;;;;;;;;;4849423;29;20141;-81
2021/10/17 04:20:57;;;;;;;10.38;3.88;;;;;;;;;;4869956;29;20052;-80
2021/10/17 04:23:23;;;;;;;12.55;4.20;;;;;;;;;;4864396;29;20028;-81
2021/10/17 04:25:49;;;;;;;11.50;3.75;;;;;;;;;;4870862;29;20032;-80
2021/10/17 04:28:15;;;;;;;10.85;4.45;;;;;;;;;;4847597;29;20052;-79
2021/10/17 04:30:42;;;;;;;10.60;3.75;;;;;;;;;;4864551;29;20043;-78
2021/10/17 04:33:08;;;;;;;9.82;3.85;;;;;;;;;;4856954;29;20032;-79
2021/10/17 04:35:34;;;;;;;;;;;;;;;;;;4863940;29;20033;-82
2021/10/17 04:38:00;;;;;;;12.13;3.92;;;;;;;;;;4870136;29;20454;-81
2021/10/17 04:40:26;;;;;;;;;;;;;;;;;;4859227;29;20037;-79
2021/10/17 04:42:53;;;;;;;10.65;3.85;;;;;;;;;;4860390;29;19939;-79
2021/10/17 04:45:19;;;;;;;11.27;3.97;;;;;;;;;;4855996;29;20052;-78
2021/10/17 04:47:45;;;;;;;9.05;3.60;;;;;;;;;;4866467;29;20163;-78
2021/10/17 04:50:11;;;;;;;10.70;3.50;;;;;;;;;;4859119;29;20021;-79
2021/10/17 04:52:37;;;;;;;10.35;3.90;;;;;;;;;;4857609;29;20697;-79
2021/10/17 04:55:08;;;;;;;10.43;3.92;;;;;;;;;;4857314;29;20036;-79
2021/10/17 04:57:34;;;;;;;12.60;4.30;;;;;;;;;;4857118;29;20099;-79
2021/10/17 05:00:00;;;;;;;;;;;;;;;;;;4863113;29;20063;-79
2021/10/17 05:02:27;;;;;;;8.98;3.55;;;;;;;;;;4842835;29;20494;-78
2021/10/17 05:04:53;;;;;;;12.45;3.85;;;;;;;;;;4860447;29;20025;-78
2021/10/17 05:07:19;;;;;;;10.50;3.67;;;;;;;;;;4852808;29;20143;-79
2021/10/17 05:09:45;;;;;;;8.07;3.40;;;;;;;;;;4860530;29;20511;-80
2021/10/17 05:12:11;;;;;;;11.15;3.65;;;;;;;;;;4863903;29;20131;-79
2021/10/17 05:14:38;;;;;;;9.23;3.78;;;;;;;;;;4860853;29;22542;-80
2021/10/17 05:17:04;;;;;;;13.45;4.43;;;;;;;;;;4864839;29;20060;-79
2021/10/17 05:19:30;;;;;;;;;;;;;;;;;;4868452;29;20053;-79
2021/10/17 05:22:05;;;;;;;11.80;4.20;;;;;;;;;;4868775;29;19924;-80
2021/10/17 05:24:31;;;;;;;9.73;3.50;;;;;;;;;;4861781;29;20061;-80
2021/10/17 05:26:57;;;;;;;10.80;3.70;;;;;;;;;;4864133;29;20041;-80
2021/10/17 05:29:23;;;;;;;9.25;3.85;;;;;;;;;;4864886;29;20041;-81
2021/10/17 05:31:49;;;;;;;10.32;3.35;;;;;;;;;;4867762;29;20029;-81
2021/10/17 05:34:16;;;;;;;10.85;4.05;;;;;;;;;;4862132;29;20044;-80
2021/10/17 05:36:42;;;;;;;8.95;3.20;;;;;;;;;;4852314;29;20059;-80
2021/10/17 05:39:10;;;;;;;11.50;3.67;;;;;;;;;;4870094;29;20126;-82
2021/10/17 05:41:36;;;;;;;10.05;3.60;;;;;;;;;;4864957;29;20032;-81
2021/10/17 05:44:02;;;;;;;10.25;4.05;;;;;;;;;;4866099;29;20071;-81
2021/10/17 05:46:28;;;;;;;10.13;3.45;;;;;;;;;;4862514;29;22116;-79
2021/10/17 05:48:54;;;;;;;9.80;3.60;;;;;;;;;;4855530;29;20123;-81
2021/10/17 05:51:20;;;;;;;10.38;3.92;;;;;;;;;;4862714;29;20067;-80
2021/10/17 05:53:47;;;;;;;9.15;3.03;;;;;;;;;;4868415;29;20153;-80
2021/10/17 05:56:13;;;;;;;10.35;3.70;;;;;;;;;;4864204;29;20025;-81
2021/10/17 05:58:39;;;;;;;10.38;3.55;;;;;;;;;;4850409;29;20033;-80
2021/10/17 06:01:05;;;;;;;10.32;3.42;;;;;;;;;;4865711;29;20033;-80
2021/10/17 06:03:31;;;;;;;;;;;;;;;;;;4864951;29;20057;-80
2021/10/17 06:06:01;;;;;;;10.20;4.25;;;;;;;;;;4873442;29;20418;-80
2021/10/17 06:08:30;;;;;;;10.27;3.97;;;;;;;;;;4860897;29;20041;-80
2021/10/17 06:10:56;;;;;;;13.55;5.30;;;;;;;;;;4871710;29;20047;-80
2021/10/17 06:13:22;;;;;;;;;;;;;;;;;;4862577;29;20033;-81
2021/10/17 06:15:49;;;;;;;11.95;4.38;;;;;;;;;;4869338;29;19936;-81
2021/10/17 06:18:15;;;;;;;10.10;4.45;;;;;;;;;;4868019;29;21145;-80
2021/10/17 06:20:41;;;;;;;;;;;;;;;;;;4872836;29;20076;-81
2021/10/17 06:23:07;;;;;;;11.02;4.40;;;;;;;;;;4867751;29;20066;-81
2021/10/17 06:25:33;;;;;;;10.93;4.55;;;;;;;;;;4868100;29;20155;-80
2021/10/17 06:28:01;;;;;;;11.65;4.25;;;;;;;;;;4870893;29;20032;-81
2021/10/17 06:30:27;;;;;;;9.57;3.80;;;;;;;;;;4862455;29;20075;-81
2021/10/17 06:32:54;;;;;;;11.55;4.57;;;;;;;;;;4854967;29;20060;-81
2021/10/17 06:35:20;;;;;;;10.75;4.07;;;;;;;;;;4866807;29;20021;-81
2021/10/17 06:37:46;;;;;;;12.88;4.22;;;;;;;;;;4871089;29;20072;-82
2021/10/17 06:40:12;;;;;;;10.35;3.72;;;;;;;;;;4865257;29;20064;-81
2021/10/17 06:42:38;;;;;;;;;;;;;;;;;;4869336;29;20152;-81
2021/10/17 06:45:05;;;;;;;11.18;3.88;;;;;;;;;;4869104;29;20010;-84
2021/10/17 06:47:31;;;;;;;9.75;3.85;;;;;;;;;;4868946;29;20102;-84
2021/10/17 06:49:57;;;;;;;11.90;4.00;;;;;;;;;;4870176;29;20028;-80
2021/10/17 06:52:23;;;;;;;10.20;3.50;;;;;;;;;;4866222;29;20136;-81
2021/10/17 06:54:49;;;;;;;9.50;3.30;;;;;;;;;;4856590;29;20051;-81
2021/10/17 06:57:15;;;;;;;12.52;4.28;;;;;;;;;;4863814;29;20044;-81
2021/10/17 06:59:41;;;;;;;10.23;3.70;;;;;;;;;;4866922;29;20041;-82
2021/10/17 07:02:08;;;;;;;11.25;3.85;;;;;;;;;;4869700;29;20029;-81
2021/10/17 07:04:34;;;;;;;10.80;4.05;;;;;;;;;;4865393;29;20036;-80
2021/10/17 07:07:00;;;;;;;10.93;3.92;;;;;;;;;;4871284;29;20032;-80
2021/10/17 07:09:26;;;;;;;;;;;;;;;;;;4860108;29;20650;-81
2021/10/17 07:11:52;;;;;;;10.13;3.60;;;;;;;;;;4848119;29;20018;-81
2021/10/17 07:14:18;;;;;;;;;;;;;;;;;;4852499;29;20397;-81
2021/10/17 07:16:44;;;;;;;13.00;4.90;;;;;;;;;;4869344;29;19915;-80
2021/10/17 07:19:10;;;;;;;;;;;;;;;;;;4864513;29;20044;-80
2021/10/17 07:21:37;;;;;;;19.05;6.43;;;;;;;;;;4863808;29;19919;-80
2021/10/17 07:24:03;;;;;;;12.10;5.78;;;;;;;;;;4867522;29;20033;-83
2021/10/17 07:26:29;;;;;;;13.23;5.28;;;;;;;;;;4868006;29;20045;-81
2021/10/17 07:28:55;;;;;;;13.98;6.75;;;;;;;;;;4866492;29;20032;-82
2021/10/17 07:31:21;;;;;;;20.60;8.20;;;;;;;;;;4859549;29;20060;-81
2021/10/17 07:33:47;;;;;;;;;;;;;;;;;;4867897;29;20048;-81
2021/10/17 07:36:14;;;;;;;19.15;7.93;;;;;;;;;;4861355;29;19919;-80
2021/10/17 07:38:40;;;;;;;25.17;11.10;;;;;;;;;;4863080;29;20443;-80
2021/10/17 07:41:06;;;;;;;;;;;;;;;;;;4859133;29;20040;-80
2021/10/17 07:43:32;;;;;;;28.90;12.40;;;;;;;;;;4864835;29;19922;-80
2021/10/17 07:46:02;;;;;;;24.58;10.77;;;;;;;;;;4866264;29;20060;-80
2021/10/17 07:48:29;;;;;;;27.20;11.43;;;;;;;;;;4854733;29;20036;-81
2021/10/17 07:50:55;;;;;;;32.15;12.95;;;;;;;;;;5027941;23;20055;-83
2021/10/17 07:53:21;;;;;;;23.45;9.35;;;;;;;;;;4889463;29;20017;-85
2021/10/17 07:55:48;;;;;;;22.60;9.07;;;;;;;;;;4892648;29;20054;-84
2021/10/17 07:58:14;;;;;;;18.88;7.47;;;;;;;;;;4887142;29;20036;-85
2021/10/17 08:00:40;;;;;;;21.02;6.68;;;;;;;;;;4882677;28;20067;-85
2021/10/17 08:03:06;;;;;;;15.55;5.03;;;;;;;;;;4907348;29;20071;-84
2021/10/17 08:05:33;;;;;;;10.60;4.30;;;;;;;;;;4902552;28;20036;-84
2021/10/17 08:07:59;;;;;;;12.90;3.90;;;;;;;;;;4890705;29;20083;-84
2021/10/17 08:10:25;;;;;;;10.18;3.70;;;;;;;;;;4886484;29;20047;-85
2021/10/17 08:12:55;;;;;;;12.52;3.92;;;;;;;;;;4893491;29;20678;-83
2021/10/17 08:15:23;;;;;;;14.65;6.00;;;;;;;;;;4904667;28;20036;-84
2021/10/17 08:17:49;;;;;;;14.02;7.35;;;;;;;;;;4896126;29;20737;-86
2021/10/17 08:20:34;;;;;;;14.10;5.65;;;;;;;;;;4906312;29;20042;-85
2021/10/17 08:23:00;;;;;;;12.48;5.20;;;;;;;;;;4891516;29;20685;-84
2021/10/17 08:25:27;;;;;;;14.77;5.97;;;;;;;;;;4889756;28;20116;-84
2021/10/17 08:28:38;;;;;;;12.93;5.35;;;;;;;;;;4903628;29;20092;-88
2021/10/17 08:30:46;;;;;;;16.80;7.63;;;;;;;;;;4877232;29;20044;-84
2021/10/17 08:33:12;;;;;;;13.68;6.15;;;;;;;;;;4905964;29;20040;-84
2021/10/17 08:35:38;;;;;;;15.80;6.88;;;;;;;;;;4894360;28;20138;-84
2021/10/17 08:38:11;;;;;;;13.60;5.57;;;;;;;;;;4876324;29;20028;-86
2021/10/17 08:40:39;;;;;;;11.60;4.75;;;;;;;;;;4897783;28;20035;-85
2021/10/17 08:43:31;;;;;;;9.98;3.90;;;;;;;;;;4883036;29;20048;-84
2021/10/17 08:46:00;;;;;;;8.43;3.17;;;;;;;;;;4896337;28;20043;-84
2021/10/17 08:48:31;;;;;;;10.65;4.47;;;;;;;;;;4875557;29;20415;-84
2021/10/17 08:50:58;;;;;;;10.23;3.70;;;;;;;;;;4895510;29;20595;-85
2021/10/17 08:53:27;;;;;;;10.98;3.85;;;;;;;;;;4865964;29;20036;-84
2021/10/17 08:55:57;;;;;;;11.38;4.70;;;;;;;;;;4914610;29;20139;-86
2021/10/17 08:58:23;;;;;;;9.25;3.25;;;;;;;;;;4892045;28;20040;-84
2021/10/17 09:00:55;;;;;;;9.52;3.47;;;;;;;;;;4909755;29;20036;-83
2021/10/17 09:03:36;;;;;;;12.23;3.30;;;;;;;;;;4900002;28;20412;-89
2021/10/17 09:09:18;;;;;;;8.95;3.42;;;;;;;;;;4869587;29;20500;-86
2021/10/17 09:15:19;;;;;;;9.32;3.30;;;;;;;;;;4799021;29;20394;-88
2021/10/17 09:18:13;;;;;;;8.77;2.58;;;;;;;;;;4800270;29;20046;-89
2021/10/17 09:20:54;;;;;;;11.02;2.97;;;;;;;;;;4798976;29;20050;-90
2021/10/17 09:23:42;;;;;;;8.35;3.40;;;;;;;;;;4804507;29;20046;-84
2021/10/17 09:35:56;;;;;;;9.27;3.10;;;;;;;;;;4797984;29;20090;-92
2021/10/17 09:38:34;;;;;;;9.75;2.88;;;;;;;;;;4799982;29;20540;-92
2021/10/17 09:41:22;;;;;;;9.13;3.22;;;;;;;;;;4811627;29;20072;-91
2021/10/17 09:43:52;;;;;;;8.60;3.05;;;;;;;;;;4794563;29;20046;-92
2021/10/17 09:46:23;;;;;;;9.13;3.35;;;;;;;;;;4800571;29;20045;-84
2021/10/17 09:48:55;;;;;;;10.88;3.47;;;;;;;;;;4819371;29;20836;-83
2021/10/17 09:51:37;;;;;;;8.88;2.95;;;;;;;;;;4816017;29;20048;-83
2021/10/17 09:54:06;;;;;;;12.45;4.45;;;;;;;;;;4895416;29;20040;-83
2021/10/17 09:56:46;;;;;;;10.77;4.00;;;;;;;;;;4892271;28;20036;-84
2021/10/17 10:02:33;;;;;;;10.23;3.08;;;;;;;;;;4866564;29;20095;-84
2021/10/17 10:05:00;;;;;;;9.48;3.50;;;;;;;;;;4904404;29;20032;-85
2021/10/17 10:07:28;;;;;;;10.45;3.20;;;;;;;;;;4885951;29;20040;-84
2021/10/17 10:09:55;;;;;;;10.52;3.20;;;;;;;;;;4903039;28;20154;-84
2021/10/17 10:12:28;;;;;;;10.40;3.88;;;;;;;;;;4903532;29;20145;-85
2021/10/17 10:15:22;;;;;;;11.93;4.00;;;;;;;;;;4902698;28;20115;-85
2021/10/17 10:17:55;;;;;;;10.13;3.85;;;;;;;;;;4878258;29;20039;-85
2021/10/17 10:20:27;;;;;;;8.20;3.35;;;;;;;;;;4866233;28;20032;-85
2021/10/17 10:22:53;;;;;;;11.05;4.15;;;;;;;;;;4904276;28;20043;-84
2021/10/17 10:25:30;;;;;;;11.60;4.72;;;;;;;;;;4887023;28;20059;-85
2021/10/17 10:28:05;;;;;;;11.45;4.22;;;;;;;;;;4899119;29;20123;-84
2021/10/17 10:30:33;;;;;;;21.73;14.97;;;;;;;;;;4891173;29;20063;-84
2021/10/17 10:33:09;;;;;;;14.38;7.43;;;;;;;;;;4887586;29;20035;-84
2021/10/17 10:35:55;;;;;;;11.45;5.18;;;;;;;;;;4879665;28;20051;-84
2021/10/17 10:38:41;;;;;;;9.30;3.78;;;;;;;;;;4883546;28;20032;-85
2021/10/17 10:41:21;;;;;;;;;;;;;;;;;;4888740;29;20127;-84
2021/10/17 10:47:36;;;;;;;7.32;2.85;;;;;;;;;;4853688;29;20099;-85
2021/10/17 10:53:34;;;;;;;9.43;2.50;;;;;;;;;;4888782;29;20051;-85
2021/10/17 11:05:46;;;;;;;10.65;3.08;;;;;;;;;;4889586;29;20059;-84
2021/10/17 11:08:23;;;;;;;7.88;3.30;;;;;;;;;;4896539;28;21189;-84
2021/10/17 11:10:58;;;;;;;8.95;3.10;;;;;;;;;;4854161;29;20036;-84
2021/10/17 11:14:08;;;;;;;10.32;3.08;;;;;;;;;;4881278;29;20043;-84
2021/10/17 11:16:44;;;;;;;8.93;3.10;;;;;;;;;;4835446;29;20065;-84
2021/10/17 11:19:38;;;;;;;8.57;2.70;;;;;;;;;;4820646;29;20102;-84
2021/10/17 11:22:05;;;;;;;11.65;3.28;;;;;;;;;;4775865;29;20057;-84
2021/10/17 11:24:31;;;;;;;10.60;3.88;;;;;;;;;;4771118;29;20582;-84
2021/10/17 11:27:13;;;;;;;9.63;2.83;;;;;;;;;;4768849;29;20504;-84
2021/10/17 11:29:49;;;;;;;8.82;2.88;;;;;;;;;;4769706;29;20358;-84
2021/10/17 11:32:18;;;;;;;9.73;2.63;;;;;;;;;;4763946;29;20039;-84
2021/10/17 11:35:05;;;;;;;12.10;3.28;;;;;;;;;;4796621;29;20053;-83
2021/10/17 11:37:32;;;;;;;8.52;2.92;;;;;;;;;;4789031;29;20108;-83
2021/10/17 11:40:00;;;;;;;9.52;3.40;;;;;;;;;;4779615;29;20562;-83
2021/10/17 11:45:26;;;;;;;10.18;3.35;;;;;;;;;;4759956;29;20050;-84
2021/10/17 11:47:59;;;;;;;11.10;3.25;;;;;;;;;;4812521;29;20046;-84
2021/10/17 11:50:27;;;;;;;8.38;3.47;;;;;;;;;;4813624;29;20164;-83
2021/10/17 11:52:58;;;;;;;8.75;2.67;;;;;;;;;;4845270;29;20041;-88
2021/10/17 11:55:39;;;;;;;8.23;2.75;;;;;;;;;;4870876;29;20043;-88
2021/10/17 11:58:13;;;;;;;8.20;3.25;;;;;;;;;;4893042;29;20652;-88
2021/10/17 12:00:39;;;;;;;10.52;3.75;;;;;;;;;;4884975;29;20044;-84
2021/10/17 12:06:05;;;;;;;13.15;4.63;;;;;;;;;;4872254;29;20515;-83
2021/10/17 12:08:35;;;;;;;10.52;4.50;;;;;;;;;;4878098;29;20047;-85
2021/10/17 12:11:03;;;;;;;11.55;4.15;;;;;;;;;;4873440;29;20028;-85
2021/10/17 12:13:41;;;;;;;11.43;4.63;;;;;;;;;;4885343;29;20044;-86
2021/10/17 12:16:19;;;;;;;10.20;3.97;;;;;;;;;;4867257;29;20100;-85
2021/10/17 12:19:10;;;;;;;8.75;3.10;;;;;;;;;;4840886;29;20048;-85
2021/10/17 12:21:46;;;;;;;9.60;3.10;;;;;;;;;;4879155;29;20984;-84
2021/10/17 12:24:15;;;;;;;10.82;4.00;;;;;;;;;;4869329;28;20045;-85
2021/10/17 12:26:53;;;;;;;10.05;3.90;;;;;;;;;;4873230;29;20036;-85
2021/10/17 12:29:22;;;;;;;8.23;3.70;;;;;;;;;;4867867;29;20457;-85
2021/10/17 12:31:53;;;;;;;8.88;3.90;;;;;;;;;;4885299;29;20037;-86
2021/10/17 12:34:36;;;;;;;10.40;3.33;;;;;;;;;;4881746;29;20452;-85
2021/10/17 12:37:03;;;;;;;10.63;3.80;;;;;;;;;;4874803;28;20064;-84
2021/10/17 12:39:29;;;;;;;9.38;3.63;;;;;;;;;;4880951;29;20058;-84
2021/10/17 12:42:05;;;;;;;9.30;3.45;;;;;;;;;;4877030;29;20043;-84
2021/10/17 12:44:47;;;;;;;12.05;4.03;;;;;;;;;;4871861;29;20125;-85
2021/10/17 12:47:19;;;;;;;9.02;3.78;;;;;;;;;;4888683;29;20033;-85
2021/10/17 12:49:48;;;;;;;9.52;3.55;;;;;;;;;;4878296;29;20513;-85
2021/10/17 12:52:32;;;;;;;12.07;4.13;;;;;;;;;;4907479;28;20039;-85
2021/10/17 12:55:03;;;;;;;10.80;3.72;;;;;;;;;;4915058;28;20035;-85
2021/10/17 12:57:29;;;;;;;11.77;3.88;;;;;;;;;;4905215;28;20039;-84
2021/10/17 12:59:57;;;;;;;9.70;3.53;;;;;;;;;;4926096;28;20050;-84
2021/10/17 13:02:23;;;;;;;9.98;3.80;;;;;;;;;;4920759;28;20051;-84
2021/10/17 13:05:07;;;;;;;8.73;3.70;;;;;;;;;;4927047;28;20928;-85
2021/10/17 13:07:35;;;;;;;9.65;3.88;;;;;;;;;;4925936;28;20154;-85
2021/10/17 13:10:01;;;;;;;9.50;3.78;;;;;;;;;;4923641;28;20031;-84
2021/10/17 13:12:31;;;;;;;8.68;3.47;;;;;;;;;;4906644;28;20047;-84
2021/10/17 13:15:04;;;;;;;8.95;3.40;;;;;;;;;;4926279;28;20046;-85
2021/10/17 13:17:30;;;;;;;9.98;3.67;;;;;;;;;;4919071;28;20035;-84
2021/10/17 13:19:57;;;;;;;9.60;3.67;;;;;;;;;;4925364;28;20393;-85
2021/10/17 13:22:26;;;;;;;8.07;3.20;;;;;;;;;;4920519;28;20044;-85
2021/10/17 13:24:53;;;;;;;10.18;3.25;;;;;;;;;;4923875;28;20035;-84
2021/10/17 13:27:22;;;;;;;8.75;3.10;;;;;;;;;;4922355;28;20125;-84
2021/10/17 13:29:48;;;;;;;7.95;3.22;;;;;;;;;;4921942;28;20039;-85
2021/10/17 13:32:18;;;;;;;9.73;3.78;;;;;;;;;;4920713;28;20063;-84
2021/10/17 13:34:54;;;;;;;15.32;8.63;;;;;;;;;;4898157;29;20086;-85
2021/10/17 13:37:20;;;;;;;10.95;4.70;;;;;;;;;;4906023;28;20050;-84
2021/10/17 13:39:46;;;;;;;7.93;3.30;;;;;;;;;;4912632;29;20043;-83
2021/10/17 13:42:13;;;;;;;9.15;3.22;;;;;;;;;;4920869;28;20849;-83
2021/10/17 13:44:46;;;;;;;9.70;3.03;;;;;;;;;;4924182;28;20107;-84
2021/10/17 13:47:13;;;;;;;8.85;3.47;;;;;;;;;;4929186;28;20042;-85
2021/10/17 13:49:54;;;;;;;10.55;3.38;;;;;;;;;;4913622;28;20111;-83
2021/10/17 13:55:17;;;;;;;10.15;3.85;;;;;;;;;;4904322;28;22684;-83
2021/10/17 13:57:45;;;;;;;10.80;3.33;;;;;;;;;;4921374;28;20227;-84
2021/10/17 14:00:15;;;;;;;10.57;3.47;;;;;;;;;;4920668;28;20045;-84
2021/10/17 14:02:44;;;;;;;8.73;3.88;;;;;;;;;;4913848;28;20043;-84
2021/10/17 14:05:11;;;;;;;10.57;4.05;;;;;;;;;;4920389;28;20031;-83
2021/10/17 14:07:37;;;;;;;9.45;3.60;;;;;;;;;;4934435;28;20498;-84
2021/10/17 14:10:04;;;;;;;10.02;3.55;;;;;;;;;;4910711;28;20040;-84
2021/10/17 14:12:30;;;;;;;10.82;3.35;;;;;;;;;;4909708;28;20051;-85
2021/10/17 14:14:56;;;;;;;9.57;3.17;;;;;;;;;;4909091;28;20043;-84
2021/10/17 14:17:23;;;;;;;11.43;2.80;;;;;;;;;;4890159;28;20390;-84
2021/10/17 14:19:49;;;;;;;8.82;2.63;;;;;;;;;;4908858;28;20140;-84
2021/10/17 14:22:16;;;;;;;9.48;2.97;;;;;;;;;;4923288;28;20493;-84
2021/10/17 14:24:45;;;;;;;7.72;2.70;;;;;;;;;;4902820;29;20040;-84
2021/10/17 14:27:12;;;;;;;7.75;2.92;;;;;;;;;;4908803;28;20082;-85
2021/10/17 14:29:38;;;;;;;11.32;3.20;;;;;;;;;;4893687;29;21144;-84
2021/10/17 14:32:05;;;;;;;10.93;3.63;;;;;;;;;;4924876;28;20059;-85
2021/10/17 14:34:32;;;;;;;8.30;2.78;;;;;;;;;;4888762;29;20114;-85
2021/10/17 14:37:01;;;;;;;7.80;2.88;;;;;;;;;;4901140;29;20049;-85
2021/10/17 14:39:27;;;;;;;7.40;2.92;;;;;;;;;;4917277;28;20050;-85
2021/10/17 14:41:53;;;;;;;8.60;3.08;;;;;;;;;;4923697;28;20035;-84
2021/10/17 14:44:19;;;;;;;9.18;2.90;;;;;;;;;;4919311;28;20039;-84
2021/10/17 14:46:47;;;;;;;8.68;2.33;;;;;;;;;;4895350;29;20031;-84
2021/10/17 14:49:13;;;;;;;9.60;2.90;;;;;;;;;;4904080;29;20087;-84
2021/10/17 14:51:39;;;;;;;10.18;2.80;;;;;;;;;;4922495;28;20046;-84
2021/10/17 14:54:06;;;;;;;10.55;3.65;;;;;;;;;;4924401;28;20478;-84
2021/10/17 14:56:32;;;;;;;8.77;3.15;;;;;;;;;;4893172;28;20570;-84
2021/10/17 14:58:58;;;;;;;9.38;3.17;;;;;;;;;;4924251;28;20036;-84
2021/10/17 15:01:24;;;;;;;9.48;3.00;;;;;;;;;;4919377;28;20040;-83
2021/10/17 15:03:53;;;;;;;9.85;3.25;;;;;;;;;;4924626;28;20074;-83
2021/10/17 15:06:19;;;;;;;9.45;3.03;;;;;;;;;;4915561;28;20053;-84
2021/10/17 15:08:53;;;;;;;10.07;3.30;;;;;;;;;;4926226;28;20055;-84
2021/10/17 15:11:33;;;;;;;9.98;3.35;;;;;;;;;;4918666;28;20126;-84
2021/10/17 15:13:59;;;;;;;9.13;4.20;;;;;;;;;;4892398;29;20032;-84
2021/10/17 15:16:26;;;;;;;9.82;3.80;;;;;;;;;;4922829;28;20036;-84
2021/10/17 15:18:52;;;;;;;11.98;3.42;;;;;;;;;;4906931;29;20040;-84
2021/10/17 15:21:18;;;;;;;12.45;4.13;;;;;;;;;;4902067;28;20052;-84
2021/10/17 15:24:01;;;;;;;;;;;;;;;;;;;;;
2021/10/17 15:26:30;;;;;;;12.38;4.15;;;;;;;;;;4882367;28;20545;-83
2021/10/17 15:29:25;;;;;;;8.88;3.95;;;;;;;;;;4897085;28;20039;-82
2021/10/17 15:35:50;;;;;;;;;;;;;;;;;;;;;
2021/10/17 15:38:39;;;;;;;9.32;3.53;;;;;;;;;;4914965;28;20047;-85
2021/10/17 15:51:21;;;;;;;10.43;3.60;;;;;;;;;;4812733;29;20068;-84